SondeTracker

Meteorological Radiosondes Database

Operations

Sounding was ended - last measurement: 2022-12-06 01:06:41z

MAP
About Radiosonde

Number: U1420135

Launch Site: Washington [VA] (US)

Type: RS41

AUX: NO

Frequency: 403.000 MHz

Max Speed: 202 km/h at 11020 m

Average Speed: 111.44 km/h

Max Altitude: 33826 m

Average Ascent Speed: 4.89 m/s

Average Descent Speed: 36.08 m/s

Status: UNKNOWN

Status Changes
Launch Site Type AUX Frequency Status Finder Landing Point Description Changes made by
APRS Statistics

Received Frames: 261

First Frame [UTC]: 2022-12-05 23:26:55z

Last Frame [UTC]: 2022-12-06 01:06:41z

Receivers: K4KDR-12, KB3ZOX, W4DEX-14

Flight Time: 01:39:46 h

Distance From First Measurement: 172.19 km

Nearest City: Milford [DE] (US) [11.10 km]

Nearest Hunter: [0.00 km]

Ground Altitude: 6 m

Distance from QTH: 0.00 km

APRS Data
Receiver Number Date/Time [UTC] φ λ Course [°] Speed [km/h] Altitude [m] Description
K4KDR-12U14201352022-12-06 01:06:4138.8285-75.3467762420259Clb=-18.8m/s t=-64.1C h=1.9% p=-1.0hPa 403.000 MHz Type=RS41-NG ser=U1420135 Radiosonde
K4KDR-12U14201352022-12-06 01:06:1138.8286-75.34931084820741Clb=-18.6m/s t=-64.7C h=1.9% p=-1.0hPa 403.000 MHz Type=RS41-NG ser=U1420135 Radiosonde
W4DEX-14U14201352022-12-06 01:05:3338.8247-75.3724985723491Clb=-24.4m/s t=-58.1C h=4.5% 403.00MHz Type=RS41-NG Details on http://radiosondy.info
W4DEX-14U14201352022-12-06 01:05:1738.8255-75.37491172823858Clb=-24.9m/s t=-58.6C h=4.7% 403.00MHz Type=RS41-NG Details on http://radiosondy.info
W4DEX-14U14201352022-12-06 01:05:0438.8258-75.376842624236Clb=-24.7m/s t=-58.4C h=4.5% 403.00MHz Type=RS41-NG batt=2.5V Details on http://radiosondy.info
W4DEX-14U14201352022-12-06 01:05:0038.8256-75.3774876924630Clb=-25.9m/s t=-59.8C h=5.2% 403.00MHz Type=RS41-NG Details on http://radiosondy.info
K4KDR-12U14201352022-12-06 01:04:5938.8253-75.3794846724942Clb=-27.4m/s t=-58.9C h=1.1% p=-1.0hPa 403.000 MHz Type=RS41-NG ser=U1420135 Radiosonde
W4DEX-14U14201352022-12-06 01:04:3438.8211-75.3918669826733Clb=-32.6m/s t=-57.3C h=4.5% 403.00MHz Type=RS41-NG Details on http://radiosondy.info
K4KDR-12U14201352022-12-06 01:04:3238.8209-75.3924648926800Clb=-33.8m/s t=-57.6C h=1.1% p=-1.0hPa 403.000 MHz Type=RS41-NG ser=U1420135 Radiosonde
W4DEX-14U14201352022-12-06 01:04:1438.8197-75.39637211727261Clb=-37.8m/s t=-57.2C h=4.8% 403.00MHz Type=RS41-NG batt=2.5V Details on http://radiosondy.info
K4KDR-12U14201352022-12-06 01:03:0938.8171-75.41448912829043Clb=-35.2m/s t=-50.6C h=0.7% p=-1.0hPa 403.000 MHz Type=RS41-NG ser=U1420135 Radiosonde
W4DEX-14U14201352022-12-06 01:02:4138.8167-75.42298012229936Clb=-41.3m/s t=-48.1C h=3.1% 403.00MHz Type=RS41-NG Details on http://radiosondy.info
W4DEX-14U14201352022-12-06 01:02:2138.8157-75.42867713730591Clb=-45.7m/s t=-47.4C h=2.8% 403.00MHz Type=RS41-NG Details on http://radiosondy.info
W4DEX-14U14201352022-12-06 01:01:5838.8146-75.43638315631415Clb=-47.0m/s t=-47.4C h=2.9% 403.00MHz Type=RS41-NG TxOff=8h29m batt=2.5V Details on http://radiosondy.info
K4KDR-12U14201352022-12-06 01:01:5038.8143-75.43978115631747Clb=-48.8m/s t=-47.6C h=0.6% p=-1.0hPa 403.000 MHz Type=RS41-NG ser=U1420135 Radiosonde
W4DEX-14U14201352022-12-06 01:01:3138.8138-75.44468315232271Clb=-53.6m/s t=-46.8C h=2.8% 403.00MHz Type=RS41-NG Details on http://radiosondy.info
W4DEX-14U14201352022-12-06 01:01:0738.8131-75.45298116133193Clb=-50.3m/s t=-47.4C h=2.9% 403.00MHz Type=RS41-NG Details on http://radiosondy.info
W4DEX-14U14201352022-12-06 01:00:4538.8121-75.46037816533810Clb=-32.2m/s t=-46.4C h=2.7% 403.00MHz Type=RS41-NG batt=2.5V Details on http://radiosondy.info
W4DEX-14U14201352022-12-06 01:00:2538.8114-75.46819116533826Clb=1.8m/s t=-47.0C h=2.8% 403.00MHz Type=RS41-NG Details on http://radiosondy.info
W4DEX-14U14201352022-12-06 01:00:0238.8106-75.47567516333738Clb=2.0m/s t=-47.1C h=2.8% 403.00MHz Type=RS41-NG Details on http://radiosondy.info
W4DEX-14U14201352022-12-06 00:59:3738.8096-75.48587216133626Clb=1.3m/s t=-47.1C h=2.8% 403.00MHz Type=RS41-NG batt=2.5V Details on http://radiosondy.info
W4DEX-14U14201352022-12-06 00:59:1438.8088-75.49418515733536Clb=6.1m/s t=-47.1C h=2.8% 403.00MHz Type=RS41-NG Details on http://radiosondy.info
K4KDR-12U14201352022-12-06 00:58:5738.8075-75.50198717433440Clb=11.2m/s t=-47.5C h=0.6% p=-1.0hPa 403.000 MHz Type=RS41-NG ser=U1420135 Radiosonde
W4DEX-14U14201352022-12-06 00:57:3738.8047-75.52789014633132Clb=4.5m/s t=-48.2C h=2.9% 403.00MHz Type=RS41-NG Details on http://radiosondy.info
K4KDR-12U14201352022-12-06 00:57:2938.8042-75.53048615233097Clb=10.0m/s t=-48.3C h=0.6% p=-1.0hPa 403.000 MHz Type=RS41-NG ser=U1420135 Radiosonde
W4DEX-14U14201352022-12-06 00:57:1338.8039-75.53458315033048Clb=5.1m/s t=-48.7C h=3.0% 403.00MHz Type=RS41-NG TxPastBurst=8h30m batt=2.5V Details on http://radiosondy.info
W4DEX-14U14201352022-12-06 00:56:4738.8035-75.54337915732932Clb=1.9m/s t=-48.8C h=3.1% 403.00MHz Type=RS41-NG Details on http://radiosondy.info
K4KDR-12U14201352022-12-06 00:56:0038.8028-75.56038119132734Clb=5.2m/s t=-48.5C h=0.6% p=-1.0hPa 403.000 MHz Type=RS41-NG ser=U1420135 Radiosonde
K4KDR-12U14201352022-12-06 00:54:2938.7997-75.59148913532370Clb=7.4m/s t=-48.3C h=0.6% p=-1.0hPa 403.000 MHz Type=RS41-NG ser=U1420135 Radiosonde
W4DEX-14U14201352022-12-06 00:53:4538.7989-75.60469616132197Clb=2.4m/s t=-47.6C h=3.0% 403.00MHz Type=RS41-NG Details on http://radiosondy.info
W4DEX-14U14201352022-12-06 00:53:0738.7975-75.61737916132046Clb=5.5m/s t=-47.6C h=2.8% 403.00MHz Type=RS41-NG batt=2.5V Details on http://radiosondy.info
K4KDR-12U14201352022-12-06 00:52:5438.7971-75.62187714331990Clb=4.7m/s t=-47.8C h=0.6% p=-1.0hPa 403.000 MHz Type=RS41-NG ser=U1420135 Radiosonde
W4DEX-14U14201352022-12-06 00:52:3738.7965-75.62627716531937Clb=5.4m/s t=-48.7C h=3.1% 403.00MHz Type=RS41-NG Details on http://radiosondy.info
W4DEX-14U14201352022-12-06 00:52:0838.7954-75.63486815231835Clb=4.0m/s t=-48.6C h=3.1% 403.00MHz Type=RS41-NG Details on http://radiosondy.info
W4DEX-14U14201352022-12-06 00:51:5138.7945-75.6428315031751Clb=5.4m/s t=-48.7C h=3.0% 403.00MHz Type=RS41-NG batt=2.5V Details on http://radiosondy.info
W4DEX-14U14201352022-12-06 00:51:3638.7933-75.64989014831653Clb=2.0m/s t=-48.8C h=3.1% 403.00MHz Type=RS41-NG Details on http://radiosondy.info
K4KDR-12U14201352022-12-06 00:51:3438.7931-75.65126914331636Clb=8.0m/s t=-48.8C h=0.7% p=-1.0hPa 403.000 MHz Type=RS41-NG ser=U1420135 Radiosonde
W4DEX-14U14201352022-12-06 00:51:1938.7923-75.65677514631574Clb=3.6m/s t=-48.6C h=3.0% 403.00MHz Type=RS41-NG Details on http://radiosondy.info
W4DEX-14U14201352022-12-06 00:51:0438.7917-75.66357813731490Clb=8.7m/s t=-48.5C h=3.1% 403.00MHz Type=RS41-NG TxPastBurst=8h30m batt=2.6V Details on http://radiosondy.info
W4DEX-14U14201352022-12-06 00:50:4838.7908-75.67059114631402Clb=3.2m/s t=-48.5C h=2.9% 403.00MHz Type=RS41-NG Details on http://radiosondy.info
W4DEX-14U14201352022-12-06 00:50:3538.7899-75.6777413031321Clb=5.5m/s t=-49.8C h=3.2% 403.00MHz Type=RS41-NG Details on http://radiosondy.info
K4KDR-12U14201352022-12-06 00:50:3338.7898-75.67898212631291Clb=5.6m/s t=-49.7C h=0.7% p=-1.0hPa 403.000 MHz Type=RS41-NG ser=U1420135 Radiosonde
W4DEX-14U14201352022-12-06 00:50:1938.7892-75.6837114431237Clb=8.7m/s t=-49.3C h=3.2% 403.00MHz Type=RS41-NG batt=2.5V Details on http://radiosondy.info
W4DEX-14U14201352022-12-06 00:50:0338.788-75.68979014431151Clb=5.2m/s t=-48.9C h=3.0% 403.00MHz Type=RS41-NG Details on http://radiosondy.info
W4DEX-14U14201352022-12-06 00:49:4838.7869-75.69648114831066Clb=8.1m/s t=-49.6C h=3.2% 403.00MHz Type=RS41-NG Details on http://radiosondy.info
K4KDR-12U14201352022-12-06 00:49:3538.7721-75.8129613529232Clb=7.1m/s t=-51.9C h=0.8% p=-1.0hPa 403.000 MHz Type=RS41-NG ser=U1420135 Radiosonde
W4DEX-14U14201352022-12-06 00:49:3238.7719-75.82288812429078Clb=6.6m/s t=-51.2C h=3.4% 403.00MHz Type=RS41-NG Details on http://radiosondy.info
W4DEX-14U14201352022-12-06 00:49:3138.7717-75.82879412628987Clb=3.8m/s t=-51.2C h=3.3% 403.00MHz Type=RS41-NG Details on http://radiosondy.info
KB3ZOXU14201352022-12-06 00:49:3038.7716-75.83268312828934Clb=7.6m/s t=-51.7C h=0.8% 403.000MHz Type=RS41-NG rdzTTGOsonde
KB3ZOXU14201352022-12-06 00:49:2638.7701-75.8519210728699Clb=2.9m/s t=-53.7C h=0.9% 403.000MHz Type=RS41-NG rdzTTGOsonde
K4KDR-12U14201352022-12-06 00:49:2438.7699-75.85247413328680Clb=2.1m/s t=-54.0C h=0.8% p=-1.0hPa 403.000 MHz Type=RS41-NG ser=U1420135 Radiosonde
K4KDR-12U14201352022-12-06 00:47:4638.7668-75.87588411928367Clb=5.4m/s t=-56.8C h=1.0% p=-1.0hPa 403.000 MHz Type=RS41-NG ser=U1420135 Radiosonde
W4DEX-14U14201352022-12-06 00:46:4238.7651-75.88918212628163Clb=7.0m/s t=-56.0C h=4.3% 403.00MHz Type=RS41-NG batt=2.6V Details on http://radiosondy.info
W4DEX-14U14201352022-12-06 00:45:5738.7639-75.89828311728016Clb=7.1m/s t=-55.7C h=4.1% 403.00MHz Type=RS41-NG Details on http://radiosondy.info
K4KDR-12U14201352022-12-06 00:45:5438.7638-75.8997212028003Clb=6.3m/s t=-55.7C h=0.9% p=-1.0hPa 403.000 MHz Type=RS41-NG ser=U1420135 Radiosonde
W4DEX-14U14201352022-12-06 00:45:3238.7629-75.90357610027922Clb=7.0m/s t=-55.9C h=4.1% 403.00MHz Type=RS41-NG Details on http://radiosondy.info
W4DEX-14U14201352022-12-06 00:45:0538.7619-75.908889627824Clb=5.4m/s t=-56.2C h=4.1% 403.00MHz Type=RS41-NG batt=2.6V Details on http://radiosondy.info
W4DEX-14U14201352022-12-06 00:44:4138.7609-75.91248410727729Clb=6.0m/s t=-56.4C h=4.2% 403.00MHz Type=RS41-NG Details on http://radiosondy.info
W4DEX-14U14201352022-12-06 00:44:1338.7596-75.91726811927633Clb=7.1m/s t=-56.6C h=4.2% 403.00MHz Type=RS41-NG Details on http://radiosondy.info
K4KDR-12U14201352022-12-06 00:44:0938.7594-75.91837911927612Clb=5.2m/s t=-57.1C h=1.0% p=-1.0hPa 403.000 MHz Type=RS41-NG ser=U1420135 Radiosonde
W4DEX-14U14201352022-12-06 00:43:4838.7579-75.92246011327538Clb=4.4m/s t=-56.9C h=4.3% 403.00MHz Type=RS41-NG TxPastBurst=8h30m batt=2.6V Details on http://radiosondy.info
KB3ZOXU14201352022-12-06 00:43:2938.7568-75.92567510427475Clb=9.1m/s t=-57.0C h=1.1% 403.000MHz Type=RS41-NG rdzTTGOsonde
W4DEX-14U14201352022-12-06 00:43:1938.7564-75.92746010227442Clb=6.4m/s t=-57.5C h=4.3% 403.00MHz Type=RS41-NG Details on http://radiosondy.info
W4DEX-14U14201352022-12-06 00:42:5338.7551-75.9319709627349Clb=6.7m/s t=-58.0C h=4.6% 403.00MHz Type=RS41-NG Details on http://radiosondy.info
KB3ZOXU14201352022-12-06 00:42:5238.7551-75.9319709427349Clb=6.7m/s t=-58.0C h=1.2% 403.000MHz Type=RS41-NG rdzTTGOsonde
W4DEX-14U14201352022-12-06 00:42:2038.754-75.9363639827259Clb=4.4m/s t=-57.9C h=4.6% 403.00MHz Type=RS41-NG batt=2.5V Details on http://radiosondy.info
K4KDR-12U14201352022-12-06 00:42:1338.7537-75.9378809127229Clb=5.7m/s t=-57.8C h=1.1% p=-1.0hPa 403.000 MHz Type=RS41-NG ser=U1420135 Radiosonde
W4DEX-14U14201352022-12-06 00:41:5338.7529-75.9407649327167Clb=6.4m/s t=-57.5C h=4.5% 403.00MHz Type=RS41-NG Details on http://radiosondy.info
KB3ZOXU14201352022-12-06 00:41:5238.7529-75.94076410027167Clb=6.4m/s t=-57.6C h=1.2% 403.000MHz Type=RS41-NG rdzTTGOsonde
W4DEX-14U14201352022-12-06 00:41:2538.7517-75.9447618727080Clb=3.5m/s t=-57.5C h=4.4% 403.00MHz Type=RS41-NG Details on http://radiosondy.info
W4DEX-14U14201352022-12-06 00:40:5738.7502-75.9484518026993Clb=4.7m/s t=-57.5C h=4.4% 403.00MHz Type=RS41-NG batt=2.6V Details on http://radiosondy.info
W4DEX-14U14201352022-12-06 00:40:2738.7488-75.9517627226907Clb=3.7m/s t=-57.8C h=4.6% 403.00MHz Type=RS41-NG Details on http://radiosondy.info
K4KDR-12U14201352022-12-06 00:40:1938.7484-75.9527597626879Clb=7.7m/s t=-57.8C h=1.0% p=-1.0hPa 403.000 MHz Type=RS41-NG ser=U1420135 Radiosonde
W4DEX-14U14201352022-12-06 00:40:0238.7476-75.9546516926821Clb=5.0m/s t=-57.6C h=4.6% 403.00MHz Type=RS41-NG Details on http://radiosondy.info
W4DEX-14U14201352022-12-06 00:39:3338.7461-75.9572546126735Clb=6.5m/s t=-57.4C h=4.5% 403.00MHz Type=RS41-NG TxPastBurst=8h30m batt=2.5V Details on http://radiosondy.info
K4KDR-12U14201352022-12-06 00:38:3138.7429-75.9641576926527Clb=6.9m/s t=-56.2C h=1.0% p=-1.0hPa 403.000 MHz Type=RS41-NG ser=U1420135 Radiosonde
KB3ZOXU14201352022-12-06 00:37:2438.7392-75.9706476726341Clb=5.7m/s t=-56.3C h=1.1% 403.000MHz Type=RS41-NG rdzTTGOsonde
K4KDR-12U14201352022-12-06 00:36:2838.7358-75.9757617426179Clb=5.7m/s t=-55.9C h=0.9% p=-1.0hPa 403.000 MHz Type=RS41-NG ser=U1420135 Radiosonde
KB3ZOXU14201352022-12-06 00:35:5838.7337-75.9789498526075Clb=3.2m/s t=-56.1C h=1.1% 403.000MHz Type=RS41-NG rdzTTGOsonde
KB3ZOXU14201352022-12-06 00:35:4038.7319-75.9828637025950Clb=7.8m/s t=-55.9C h=1.1% 403.000MHz Type=RS41-NG rdzTTGOsonde
KB3ZOXU14201352022-12-06 00:35:1938.7306-75.9868576925818Clb=6.5m/s t=-56.2C h=1.1% 403.000MHz Type=RS41-NG rdzTTGOsonde
K4KDR-12U14201352022-12-06 00:35:1738.7303-75.9873616325799Clb=6.8m/s t=-56.2C h=1.0% p=-1.0hPa 403.000 MHz Type=RS41-NG ser=U1420135 Radiosonde
W4DEX-14U14201352022-12-06 00:34:4838.729-75.9924796125637Clb=6.2m/s t=-56.2C h=4.2% 403.00MHz Type=RS41-NG Details on http://radiosondy.info
W4DEX-14U14201352022-12-06 00:34:3638.7285-75.9951687425546Clb=6.4m/s t=-56.1C h=4.1% 403.00MHz Type=RS41-NG Details on http://radiosondy.info
W4DEX-14U14201352022-12-06 00:34:2138.728-75.9982856125455Clb=5.5m/s t=-56.2C h=4.1% 403.00MHz Type=RS41-NG batt=2.5V Details on http://radiosondy.info
K4KDR-12U14201352022-12-06 00:34:1738.7278-75.9989686325422Clb=6.9m/s t=-56.3C h=0.9% p=-1.0hPa 403.000 MHz Type=RS41-NG ser=U1420135 Radiosonde
KB3ZOXU14201352022-12-06 00:33:5538.7273-76.0029846325310Clb=7.8m/s t=-56.8C h=1.1% 403.000MHz Type=RS41-NG rdzTTGOsonde
KB3ZOXU14201352022-12-06 00:33:3438.7268-76.0069785425182Clb=5.9m/s t=-57.8C h=1.2% 403.000MHz Type=RS41-NG rdzTTGOsonde
K4KDR-12U14201352022-12-06 00:33:1338.7264-76.0113945225034Clb=5.3m/s t=-57.7C h=1.0% p=-1.0hPa 403.000 MHz Type=RS41-NG ser=U1420135 Radiosonde
W4DEX-14U14201352022-12-06 00:33:1038.7264-76.0117838125025Clb=6.2m/s t=-57.7C h=4.3% 403.00MHz Type=RS41-NG Details on http://radiosondy.info
KB3ZOXU14201352022-12-06 00:33:0438.7241-76.1132744822269Clb=3.0m/s t=-65.6C h=2.1% 403.000MHz Type=RS41-NG rdzTTGOsonde
W4DEX-14U14201352022-12-06 00:33:0138.724-76.1135774322255Clb=4.9m/s t=-65.9C h=6.5% 403.00MHz Type=RS41-NG TxPastBurst=8h30m batt=2.6V Details on http://radiosondy.info
W4DEX-14U14201352022-12-06 00:32:3338.7237-76.1157775622176Clb=5.4m/s t=-67.0C h=7.3% 403.00MHz Type=RS41-NG Details on http://radiosondy.info
W4DEX-14U14201352022-12-06 00:32:0438.7234-76.1182756322095Clb=5.1m/s t=-67.2C h=7.2% 403.00MHz Type=RS41-NG Details on http://radiosondy.info
KB3ZOXU14201352022-12-06 00:31:4038.7231-76.1202855922030Clb=6.6m/s t=-67.9C h=2.5% 403.000MHz Type=RS41-NG rdzTTGOsonde
W4DEX-14U14201352022-12-06 00:31:3438.7229-76.121776322006Clb=6.7m/s t=-67.8C h=7.5% 403.00MHz Type=RS41-NG batt=2.7V Details on http://radiosondy.info
K4KDR-12U14201352022-12-06 00:31:0938.7224-76.1237835021922Clb=5.2m/s t=-67.7C h=2.2% p=-1.0hPa 403.000 MHz Type=RS41-NG ser=U1420135 Radiosonde
W4DEX-14U14201352022-12-06 00:31:0538.7224-76.124817021910Clb=6.8m/s t=-67.6C h=7.6% 403.00MHz Type=RS41-NG Details on http://radiosondy.info
W4DEX-14U14201352022-12-06 00:30:3838.7214-76.1271727621814Clb=5.6m/s t=-67.1C h=7.2% 403.00MHz Type=RS41-NG Details on http://radiosondy.info
W4DEX-14U14201352022-12-06 00:29:5238.7194-76.1318567021667Clb=5.3m/s t=-67.3C h=7.3% 403.00MHz Type=RS41-NG batt=2.6V Details on http://radiosondy.info
W4DEX-14U14201352022-12-06 00:29:2638.7177-76.1343536921574Clb=4.9m/s t=-66.6C h=7.3% 403.00MHz Type=RS41-NG Details on http://radiosondy.info
K4KDR-12U14201352022-12-06 00:29:1738.7171-76.1354507421536Clb=6.2m/s t=-66.3C h=2.0% p=-1.0hPa 403.000 MHz Type=RS41-NG ser=U1420135 Radiosonde
W4DEX-14U14201352022-12-06 00:28:5638.7161-76.1368586521482Clb=5.6m/s t=-65.8C h=6.9% 403.00MHz Type=RS41-NG Details on http://radiosondy.info
KB3ZOXU14201352022-12-06 00:28:4538.7155-76.1377455921447Clb=6.5m/s t=-65.6C h=2.1% 403.000MHz Type=RS41-NG rdzTTGOsonde
W4DEX-14U14201352022-12-06 00:28:3038.7145-76.1391506321394Clb=6.6m/s t=-65.1C h=6.6% 403.00MHz Type=RS41-NG TxPastBurst=8h30m batt=2.6V Details on http://radiosondy.info
KB3ZOXU14201352022-12-06 00:28:0738.7133-76.1409535621325Clb=6.1m/s t=-64.8C h=2.1% 403.000MHz Type=RS41-NG rdzTTGOsonde
W4DEX-14U14201352022-12-06 00:28:0238.7131-76.1414605721307Clb=6.9m/s t=-64.6C h=6.5% 403.00MHz Type=RS41-NG Details on http://radiosondy.info
W4DEX-14U14201352022-12-06 00:27:3438.7119-76.1436565221227Clb=4.4m/s t=-64.2C h=6.2% 403.00MHz Type=RS41-NG Details on http://radiosondy.info
K4KDR-12U14201352022-12-06 00:27:2138.7113-76.1445565221190Clb=5.4m/s t=-63.9C h=1.7% p=-1.0hPa 403.000 MHz Type=RS41-NG ser=U1420135 Radiosonde
KB3ZOXU14201352022-12-06 00:27:1738.7113-76.1447605721185Clb=5.7m/s t=-63.9C h=2.0% 403.000MHz Type=RS41-NG rdzTTGOsonde
W4DEX-14U14201352022-12-06 00:27:0338.7108-76.1455625021149Clb=5.6m/s t=-63.7C h=6.1% 403.00MHz Type=RS41-NG batt=2.6V Details on http://radiosondy.info
KB3ZOXU14201352022-12-06 00:26:1138.7092-76.1489693921011Clb=4.9m/s t=-63.2C h=1.9% 403.000MHz Type=RS41-NG rdzTTGOsonde
KB3ZOXU14201352022-12-06 00:25:2438.7088-76.1522864820892Clb=3.8m/s t=-62.5C h=1.9% 403.000MHz Type=RS41-NG rdzTTGOsonde
K4KDR-12U14201352022-12-06 00:25:2238.7088-76.1529815020868Clb=5.1m/s t=-62.5C h=1.6% p=-1.0hPa 403.000 MHz Type=RS41-NG ser=U1420135 Radiosonde
KB3ZOXU14201352022-12-06 00:24:4238.709-76.15551105020793Clb=4.4m/s t=-62.5C h=1.9% 403.000MHz Type=RS41-NG rdzTTGOsonde
K4KDR-12U14201352022-12-06 00:23:2638.7112-76.16211036520625Clb=3.0m/s t=-63.9C h=1.8% p=-1.0hPa 403.000 MHz Type=RS41-NG ser=U1420135 Radiosonde
K4KDR-12U14201352022-12-06 00:21:3138.713-76.1711933720345Clb=5.8m/s t=-64.8C h=2.0% p=-1.0hPa 403.000 MHz Type=RS41-NG ser=U1420135 Radiosonde
W4DEX-14U14201352022-12-06 00:19:3638.7138-76.1789934420021Clb=5.5m/s t=-63.9C h=6.4% 403.00MHz Type=RS41-NG Details on http://radiosondy.info
KB3ZOXU14201352022-12-06 00:19:2338.7138-76.1799985719981Clb=5.6m/s t=-63.9C h=2.3% 403.000MHz Type=RS41-NG rdzTTGOsonde
W4DEX-14U14201352022-12-06 00:19:1038.7138-76.181994319938Clb=5.3m/s t=-64.1C h=6.3% 403.00MHz Type=RS41-NG Details on http://radiosondy.info
KB3ZOXU14201352022-12-06 00:18:4838.7139-76.1826884619874Clb=5.3m/s t=-64.3C h=2.3% 403.000MHz Type=RS41-NG rdzTTGOsonde
W4DEX-14U14201352022-12-06 00:18:4338.7139-76.183964619857Clb=4.7m/s t=-64.4C h=6.5% 403.00MHz Type=RS41-NG batt=2.7V Details on http://radiosondy.info
W4DEX-14U14201352022-12-06 00:18:1638.7139-76.1852894319771Clb=5.6m/s t=-64.8C h=6.7% 403.00MHz Type=RS41-NG Details on http://radiosondy.info
KB3ZOXU14201352022-12-06 00:17:5938.714-76.18631194419725Clb=5.4m/s t=-64.9C h=2.5% 403.000MHz Type=RS41-NG rdzTTGOsonde
W4DEX-14U14201352022-12-06 00:17:4738.7143-76.18721184419685Clb=6.3m/s t=-64.9C h=6.9% 403.00MHz Type=RS41-NG Details on http://radiosondy.info
W4DEX-14U14201352022-12-06 00:17:1838.7151-76.1891065219603Clb=5.7m/s t=-64.6C h=6.9% 403.00MHz Type=RS41-NG TxPastBurst=8h30m batt=2.7V Details on http://radiosondy.info
KB3ZOXU14201352022-12-06 00:17:1538.7151-76.18921085219597Clb=5.9m/s t=-64.6C h=2.6% 403.000MHz Type=RS41-NG rdzTTGOsonde
W4DEX-14U14201352022-12-06 00:16:4938.7157-76.19131065719522Clb=6.3m/s t=-64.5C h=6.8% 403.00MHz Type=RS41-NG Details on http://radiosondy.info
W4DEX-14U14201352022-12-06 00:16:2238.7163-76.19391086719443Clb=7.1m/s t=-64.6C h=6.9% 403.00MHz Type=RS41-NG Details on http://radiosondy.info
W4DEX-14U14201352022-12-06 00:15:5838.717-76.19691206319363Clb=3.9m/s t=-65.0C h=7.0% 403.00MHz Type=RS41-NG batt=2.7V Details on http://radiosondy.info
W4DEX-14U14201352022-12-06 00:15:4438.7179-76.19971007019285Clb=5.8m/s t=-65.2C calibration 96% 403.00MHz Type=RS41-NG Details on http://radiosondy.info
W4DEX-14U14201352022-12-06 00:15:3238.7185-76.20291026919217Clb=4.7m/s calibration 72% 403.00MHz Type=RS41-NG Details on http://radiosondy.info
W4DEX-14U14201352022-12-06 00:15:1638.7189-76.20611036919149Clb=4.9m/s calibration 54% Type=RS41-NG batt=2.6V Details on http://radiosondy.info
W4DEX-14U14201352022-12-06 00:14:5838.7195-76.20931186719080Clb=4.8m/s calibration 25% Type=RS41 Details on http://radiosondy.info
KB3ZOXU14201352022-12-06 00:14:4138.721-76.216956918957Clb=3.7m/s t=-66.3C h=3.0% 403.000MHz Type=RS41-NG rdzTTGOsonde
KB3ZOXU14201352022-12-06 00:14:3438.7214-76.22041007218868Clb=3.4m/s t=-66.6C h=3.1% 403.000MHz Type=RS41-NG rdzTTGOsonde
W4DEX-14U14201352022-12-06 00:14:1838.7213-76.223945718811Clb=4.7m/s calibration 17% Type=RS41 Details on http://radiosondy.info
W4DEX-14U14201352022-12-06 00:14:0438.7211-76.2258855918743Clb=5.0m/s calibration 7% Type=RS41 batt=2.6V Details on http://radiosondy.info
KB3ZOXU14201352022-12-06 00:13:5838.721-76.228905918688Clb=5.5m/s t=-66.3C h=3.1% 403.000MHz Type=RS41-NG rdzTTGOsonde
KB3ZOXU14201352022-12-06 00:13:3738.7236-76.24831085418185Clb=6.2m/s t=-64.9C h=2.8% 403.000MHz Type=RS41-NG rdzTTGOsonde
KB3ZOXU14201352022-12-06 00:13:3538.7248-76.2521205718083Clb=5.4m/s t=-64.4C h=2.8% 403.000MHz Type=RS41-NG rdzTTGOsonde
KB3ZOXU14201352022-12-06 00:13:2338.7261-76.25581166517976Clb=7.0m/s t=-63.9C h=2.7% 403.000MHz Type=RS41-NG rdzTTGOsonde
KB3ZOXU14201352022-12-06 00:13:0238.7276-76.261177817875Clb=5.1m/s t=-63.8C h=2.8% 403.000MHz Type=RS41-NG rdzTTGOsonde
KB3ZOXU14201352022-12-06 00:13:0038.7292-76.26561109117761Clb=5.8m/s t=-64.0C h=2.8% 403.000MHz Type=RS41-NG rdzTTGOsonde
KB3ZOXU14201352022-12-06 00:12:5838.7307-76.2739989317617Clb=5.7m/s t=-64.8C h=3.1% 403.000MHz Type=RS41-NG rdzTTGOsonde
KB3ZOXU14201352022-12-06 00:12:5738.7312-76.27991039317520Clb=4.4m/s t=-64.7C h=3.1% 403.000MHz Type=RS41-NG rdzTTGOsonde
KB3ZOXU14201352022-12-06 00:12:5538.7322-76.28581058517416Clb=5.6m/s t=-64.4C h=3.2% 403.000MHz Type=RS41-NG rdzTTGOsonde
KB3ZOXU14201352022-12-06 00:10:0738.7402-76.31451149416944Clb=3.4m/s t=-64.1C h=3.5% 403.000MHz Type=RS41-NG rdzTTGOsonde
KB3ZOXU14201352022-12-06 00:09:2538.7418-76.32181099816848Clb=3.9m/s t=-63.9C h=3.5% 403.000MHz Type=RS41-NG rdzTTGOsonde
KB3ZOXU14201352022-12-06 00:08:4838.7431-76.328610412216763Clb=3.8m/s t=-64.4C h=3.7% 403.000MHz Type=RS41-NG rdzTTGOsonde
KB3ZOXU14201352022-12-06 00:08:1138.7443-76.3369812016678Clb=4.5m/s t=-65.7C h=3.8% 403.000MHz Type=RS41-NG rdzTTGOsonde
KB3ZOXU14201352022-12-06 00:07:3338.7452-76.34359511116589Clb=4.5m/s t=-66.8C h=4.2% 403.000MHz Type=RS41-NG rdzTTGOsonde
KB3ZOXU14201352022-12-06 00:06:3438.747-76.354810510616436Clb=5.9m/s t=-66.1C h=4.0% 403.000MHz Type=RS41-NG rdzTTGOsonde
KB3ZOXU14201352022-12-06 00:05:5138.7486-76.3621049816330Clb=5.1m/s t=-65.5C h=3.9% 403.000MHz Type=RS41-NG rdzTTGOsonde
KB3ZOXU14201352022-12-06 00:05:1338.7501-76.3681129116238Clb=3.3m/s t=-65.2C h=3.9% 403.000MHz Type=RS41-NG rdzTTGOsonde
KB3ZOXU14201352022-12-06 00:04:3538.7517-76.37391178916135Clb=5.5m/s t=-64.9C h=3.8% 403.000MHz Type=RS41-NG rdzTTGOsonde
KB3ZOXU14201352022-12-06 00:04:0238.7534-76.37881118316041Clb=4.1m/s t=-64.9C h=3.8% 403.000MHz Type=RS41-NG rdzTTGOsonde
KB3ZOXU14201352022-12-06 00:03:3938.7554-76.38371198015935Clb=4.0m/s t=-64.5C h=3.7% 403.000MHz Type=RS41-NG rdzTTGOsonde
KB3ZOXU14201352022-12-06 00:03:2238.7579-76.38841249815829Clb=6.3m/s t=-64.5C h=3.8% 403.000MHz Type=RS41-NG rdzTTGOsonde
KB3ZOXU14201352022-12-06 00:02:5738.7608-76.39412711115726Clb=6.2m/s t=-64.4C h=4.0% 403.000MHz Type=RS41-NG rdzTTGOsonde
KB3ZOXU14201352022-12-06 00:02:3738.764-76.400212512015627Clb=4.4m/s t=-64.2C h=4.0% 403.000MHz Type=RS41-NG rdzTTGOsonde
KB3ZOXU14201352022-12-06 00:02:1638.7676-76.40812114115516Clb=3.8m/s t=-64.7C h=4.2% 403.000MHz Type=RS41-NG rdzTTGOsonde
KB3ZOXU14201352022-12-06 00:01:5438.7707-76.416411713115420Clb=3.6m/s t=-64.9C h=4.4% 403.000MHz Type=RS41-NG rdzTTGOsonde
KB3ZOXU14201352022-12-06 00:01:3438.7731-76.424210913515330Clb=4.4m/s t=-65.2C h=4.6% 403.000MHz Type=RS41-NG rdzTTGOsonde
KB3ZOXU14201352022-12-06 00:01:1438.7753-76.433110714415236Clb=4.3m/s t=-65.7C h=4.9% 403.000MHz Type=RS41-NG rdzTTGOsonde
KB3ZOXU14201352022-12-06 00:00:5438.7822-76.460211514614967Clb=4.2m/s t=-65.8C h=5.1% 403.000MHz Type=RS41-NG rdzTTGOsonde
KB3ZOXU14201352022-12-06 00:00:5138.7848-76.469411115714880Clb=3.1m/s t=-65.8C h=5.1% 403.000MHz Type=RS41-NG rdzTTGOsonde
KB3ZOXU14201352022-12-06 00:00:4338.7881-76.481810916314768Clb=3.4m/s t=-65.8C h=5.2% 403.000MHz Type=RS41-NG rdzTTGOsonde
KB3ZOXU14201352022-12-06 00:00:3738.7904-76.49210615014677Clb=3.9m/s t=-65.9C h=5.3% 403.000MHz Type=RS41-NG rdzTTGOsonde
KB3ZOXU14201352022-12-06 00:00:3438.7926-76.501611214814584Clb=3.2m/s t=-65.6C h=5.4% 403.000MHz Type=RS41-NG rdzTTGOsonde
KB3ZOXU14201352022-12-06 00:00:3238.7951-76.510611215214497Clb=5.7m/s t=-65.1C h=5.4% 403.000MHz Type=RS41-NG rdzTTGOsonde
KB3ZOXU14201352022-12-06 00:00:3038.798-76.519811515014404Clb=4.7m/s t=-65.3C h=5.5% 403.000MHz Type=RS41-NG rdzTTGOsonde
KB3ZOXU14201352022-12-06 00:00:0638.8011-76.528411414814317Clb=4.7m/s t=-65.1C h=5.6% 403.000MHz Type=RS41-NG rdzTTGOsonde
KB3ZOXU14201352022-12-05 23:59:2638.8042-76.537211714414222Clb=5.7m/s t=-64.8C h=5.5% 403.000MHz Type=RS41-NG rdzTTGOsonde
KB3ZOXU14201352022-12-05 23:58:5238.8076-76.545412014414133Clb=5.0m/s t=-64.4C h=5.5% 403.000MHz Type=RS41-NG rdzTTGOsonde
KB3ZOXU14201352022-12-05 23:58:1638.8115-76.554312115614037Clb=3.5m/s t=-63.9C h=5.4% 403.000MHz Type=RS41-NG rdzTTGOsonde
KB3ZOXU14201352022-12-05 23:57:4038.8154-76.563211716513947Clb=5.2m/s t=-63.4C h=5.4% 403.000MHz Type=RS41-NG rdzTTGOsonde
KB3ZOXU14201352022-12-05 23:57:0138.8193-76.573111516513852Clb=5.5m/s t=-63.0C h=5.5% 403.000MHz Type=RS41-NG rdzTTGOsonde
KB3ZOXU14201352022-12-05 23:56:2738.8228-76.582911417213758Clb=5.2m/s t=-63.1C h=5.8% 403.000MHz Type=RS41-NG rdzTTGOsonde
KB3ZOXU14201352022-12-05 23:56:0238.8268-76.593911716913660Clb=4.5m/s t=-62.7C h=6.0% 403.000MHz Type=RS41-NG rdzTTGOsonde
KB3ZOXU14201352022-12-05 23:56:0038.8309-76.604311516713568Clb=3.6m/s t=-63.4C h=6.9% 403.000MHz Type=RS41-NG rdzTTGOsonde
KB3ZOXU14201352022-12-05 23:55:5938.8348-76.614611717813480Clb=4.6m/s t=-63.0C h=7.6% 403.000MHz Type=RS41-NG rdzTTGOsonde
KB3ZOXU14201352022-12-05 23:55:4238.8388-76.624911618313393Clb=4.0m/s t=-63.3C h=8.9% 403.000MHz Type=RS41-NG rdzTTGOsonde
KB3ZOXU14201352022-12-05 23:55:0538.8427-76.635811418113300Clb=5.0m/s t=-63.3C h=10.0% 403.000MHz Type=RS41-NG rdzTTGOsonde
KB3ZOXU14201352022-12-05 23:54:3438.8467-76.647111618013205Clb=4.4m/s t=-64.7C h=12.2% 403.000MHz Type=RS41-NG rdzTTGOsonde
KB3ZOXU14201352022-12-05 23:54:0138.8499-76.657611116913120Clb=5.2m/s t=-64.9C h=13.7% 403.000MHz Type=RS41-NG rdzTTGOsonde
KB3ZOXU14201352022-12-05 23:53:2738.853-76.668111216113029Clb=3.8m/s t=-64.7C h=14.7% 403.000MHz Type=RS41-NG rdzTTGOsonde
KB3ZOXU14201352022-12-05 23:52:5338.8561-76.678611317012938Clb=3.6m/s t=-64.4C h=15.9% 403.000MHz Type=RS41-NG rdzTTGOsonde
KB3ZOXU14201352022-12-05 23:52:1738.8595-76.689411217812844Clb=3.4m/s t=-63.9C h=17.2% 403.000MHz Type=RS41-NG rdzTTGOsonde
KB3ZOXU14201352022-12-05 23:51:5038.8629-76.700311018912760Clb=3.2m/s t=-64.2C h=19.0% 403.000MHz Type=RS41-NG rdzTTGOsonde
KB3ZOXU14201352022-12-05 23:51:3038.866-76.711810918912679Clb=3.6m/s t=-64.1C h=21.4% 403.000MHz Type=RS41-NG rdzTTGOsonde
KB3ZOXU14201352022-12-05 23:51:1738.8691-76.723510518512596Clb=4.1m/s t=-64.3C h=24.5% 403.000MHz Type=RS41-NG rdzTTGOsonde
KB3ZOXU14201352022-12-05 23:51:1538.8715-76.733710815712514Clb=5.3m/s t=-64.6C h=27.6% 403.000MHz Type=RS41-NG rdzTTGOsonde
KB3ZOXU14201352022-12-05 23:51:1438.874-76.743710715212429Clb=3.1m/s t=-64.7C h=30.2% 403.000MHz Type=RS41-NG rdzTTGOsonde
KB3ZOXU14201352022-12-05 23:51:1338.8763-76.753710716312349Clb=5.2m/s t=-65.4C h=36.2% 403.000MHz Type=RS41-NG rdzTTGOsonde
KB3ZOXU14201352022-12-05 23:50:5038.879-76.76510818712261Clb=3.8m/s t=-65.2C h=38.4% 403.000MHz Type=RS41-NG rdzTTGOsonde
KB3ZOXU14201352022-12-05 23:50:1738.8817-76.776910819412170Clb=5.8m/s t=-64.7C h=37.2% 403.000MHz Type=RS41-NG rdzTTGOsonde
KB3ZOXU14201352022-12-05 23:49:4538.8842-76.788610518312079Clb=2.5m/s t=-64.3C h=35.5% 403.000MHz Type=RS41-NG rdzTTGOsonde
KB3ZOXU14201352022-12-05 23:49:1238.8865-76.800710318111992Clb=4.9m/s t=-64.1C h=36.0% 403.000MHz Type=RS41-NG rdzTTGOsonde
KB3ZOXU14201352022-12-05 23:48:3938.8886-76.812210418511905Clb=5.3m/s t=-63.6C h=35.2% 403.000MHz Type=RS41-NG rdzTTGOsonde
KB3ZOXU14201352022-12-05 23:48:0638.891-76.823910418311811Clb=3.7m/s t=-63.0C h=34.5% 403.000MHz Type=RS41-NG rdzTTGOsonde
KB3ZOXU14201352022-12-05 23:47:4238.8934-76.836210817811713Clb=4.0m/s t=-62.6C h=33.8% 403.000MHz Type=RS41-NG rdzTTGOsonde
KB3ZOXU14201352022-12-05 23:47:2138.8959-76.847610717611619Clb=3.9m/s t=-61.8C h=32.8% 403.000MHz Type=RS41-NG rdzTTGOsonde
KB3ZOXU14201352022-12-05 23:47:0238.8982-76.858610717611528Clb=3.9m/s t=-61.2C h=34.4% 403.000MHz Type=RS41-NG rdzTTGOsonde
KB3ZOXU14201352022-12-05 23:46:5038.9007-76.870210617811430Clb=3.8m/s t=-60.6C h=35.8% 403.000MHz Type=RS41-NG rdzTTGOsonde
KB3ZOXU14201352022-12-05 23:46:4938.9034-76.881810618011338Clb=3.8m/s t=-59.8C h=36.2% 403.000MHz Type=RS41-NG rdzTTGOsonde
KB3ZOXU14201352022-12-05 23:46:4838.9059-76.893110516911242Clb=4.6m/s t=-59.0C h=37.0% 403.000MHz Type=RS41-NG rdzTTGOsonde
KB3ZOXU14201352022-12-05 23:46:3138.9086-76.905310218011131Clb=3.9m/s t=-57.9C h=38.5% 403.000MHz Type=RS41-NG rdzTTGOsonde
KB3ZOXU14201352022-12-05 23:45:5838.9111-76.917910420211020Clb=4.1m/s t=-57.1C h=39.1% 403.000MHz Type=RS41-NG rdzTTGOsonde
KB3ZOXU14201352022-12-05 23:45:2438.9137-76.930910519810925Clb=4.2m/s t=-56.4C h=37.7% 403.000MHz Type=RS41-NG rdzTTGOsonde
KB3ZOXU14201352022-12-05 23:44:5138.9167-76.943911218310836Clb=4.8m/s t=-56.0C h=33.9% 403.000MHz Type=RS41-NG rdzTTGOsonde
KB3ZOXU14201352022-12-05 23:44:2238.9194-76.955610918010731Clb=6.6m/s t=-55.7C h=33.0% 403.000MHz Type=RS41-NG rdzTTGOsonde
KB3ZOXU14201352022-12-05 23:43:5438.9222-76.967110917210641Clb=4.9m/s t=-55.3C h=35.6% 403.000MHz Type=RS41-NG rdzTTGOsonde
KB3ZOXU14201352022-12-05 23:43:3338.9249-76.977811215410541Clb=2.5m/s t=-55.7C h=40.7% 403.000MHz Type=RS41-NG rdzTTGOsonde
KB3ZOXU14201352022-12-05 23:43:1438.9275-76.987111115010453Clb=4.1m/s t=-55.1C h=39.0% 403.000MHz Type=RS41-NG rdzTTGOsonde
KB3ZOXU14201352022-12-05 23:42:5138.9305-76.997111514810356Clb=3.5m/s t=-54.6C h=38.9% 403.000MHz Type=RS41-NG rdzTTGOsonde
KB3ZOXU14201352022-12-05 23:42:3138.9333-77.00611314810276Clb=3.8m/s t=-54.1C h=40.7% 403.000MHz Type=RS41-NG rdzTTGOsonde
KB3ZOXU14201352022-12-05 23:42:2838.936-77.015111314410192Clb=3.6m/s t=-53.4C h=40.2% 403.000MHz Type=RS41-NG rdzTTGOsonde
KB3ZOXU14201352022-12-05 23:42:2638.9392-77.025911113510091Clb=3.8m/s t=-52.6C h=36.3% 403.000MHz Type=RS41-NG rdzTTGOsonde
KB3ZOXU14201352022-12-05 23:42:0338.9418-77.034811113910006Clb=3.9m/s t=-51.9C h=34.4% 403.000MHz Type=RS41-NG rdzTTGOsonde
KB3ZOXU14201352022-12-05 23:41:3338.9442-77.04361121419921Clb=2.4m/s t=-51.2C h=34.0% 403.000MHz Type=RS41-NG rdzTTGOsonde
KB3ZOXU14201352022-12-05 23:41:0038.9468-77.05261111319832Clb=4.8m/s t=-50.5C h=34.1% 403.000MHz Type=RS41-NG rdzTTGOsonde
KB3ZOXU14201352022-12-05 23:40:2538.9497-77.06181131309739Clb=3.7m/s t=-49.6C h=30.4% 403.000MHz Type=RS41-NG rdzTTGOsonde
KB3ZOXU14201352022-12-05 23:39:5338.9528-77.07181131379637Clb=5.3m/s t=-48.8C h=26.0% 403.000MHz Type=RS41-NG rdzTTGOsonde
KB3ZOXU14201352022-12-05 23:39:3338.9552-77.07971121379553Clb=3.5m/s t=-48.0C h=26.6% 403.000MHz Type=RS41-NG rdzTTGOsonde
KB3ZOXU14201352022-12-05 23:39:1138.9578-77.08841121309465Clb=5.0m/s t=-47.4C h=30.8% 403.000MHz Type=RS41-NG rdzTTGOsonde
KB3ZOXU14201352022-12-05 23:38:5038.9602-77.09661101359381Clb=3.6m/s t=-46.7C h=31.5% 403.000MHz Type=RS41-NG rdzTTGOsonde
KB3ZOXU14201352022-12-05 23:38:3138.9626-77.10471121309300Clb=4.3m/s t=-46.0C h=31.7% 403.000MHz Type=RS41-NG rdzTTGOsonde
KB3ZOXU14201352022-12-05 23:38:1138.9649-77.11261131269222Clb=4.4m/s t=-45.4C h=32.6% 403.000MHz Type=RS41-NG rdzTTGOsonde
KB3ZOXU14201352022-12-05 23:37:5938.9673-77.12071141289137Clb=3.6m/s t=-44.8C h=34.1% 403.000MHz Type=RS41-NG rdzTTGOsonde
KB3ZOXU14201352022-12-05 23:37:5838.9696-77.12831141249043Clb=3.8m/s t=-44.0C h=31.9% 403.000MHz Type=RS41-NG rdzTTGOsonde
KB3ZOXU14201352022-12-05 23:37:4138.9719-77.1361101178949Clb=4.1m/s t=-43.2C h=33.5% 403.000MHz Type=RS41-NG rdzTTGOsonde
KB3ZOXU14201352022-12-05 23:37:1038.9739-77.14321121208865Clb=5.0m/s t=-42.4C h=34.8% 403.000MHz Type=RS41-NG rdzTTGOsonde
KB3ZOXU14201352022-12-05 23:36:3938.976-77.15091101178779Clb=5.2m/s t=-41.7C h=35.2% 403.000MHz Type=RS41-NG rdzTTGOsonde
KB3ZOXU14201352022-12-05 23:36:0838.9781-77.15861111178692Clb=3.9m/s t=-40.9C h=35.2% 403.000MHz Type=RS41-NG rdzTTGOsonde
KB3ZOXU14201352022-12-05 23:35:4638.9802-77.1661131228608Clb=3.3m/s t=-40.2C h=35.1% 403.000MHz Type=RS41-NG rdzTTGOsonde
KB3ZOXU14201352022-12-05 23:35:2538.9825-77.17381121308521Clb=4.1m/s t=-39.4C h=35.2% 403.000MHz Type=RS41-NG rdzTTGOsonde
KB3ZOXU14201352022-12-05 23:35:0538.9847-77.18121141208434Clb=4.6m/s t=-38.7C h=40.9% 403.000MHz Type=RS41-NG rdzTTGOsonde
KB3ZOXU14201352022-12-05 23:34:4438.9871-77.1891141248343Clb=4.3m/s t=-37.9C h=38.6% 403.000MHz Type=RS41-NG rdzTTGOsonde
KB3ZOXU14201352022-12-05 23:34:2338.9894-77.19681131208254Clb=5.1m/s t=-37.0C h=36.1% 403.000MHz Type=RS41-NG rdzTTGOsonde
KB3ZOXU14201352022-12-05 23:34:0438.9916-77.20421121208167Clb=3.3m/s t=-36.2C h=33.6% 403.000MHz Type=RS41-NG rdzTTGOsonde
KB3ZOXU14201352022-12-05 23:33:4238.994-77.21181081178063Clb=5.2m/s t=-35.4C h=33.9% 403.000MHz Type=RS41-NG rdzTTGOsonde
KB3ZOXU14201352022-12-05 23:33:3738.996-77.21891101177972Clb=4.4m/s t=-34.6C h=32.9% 403.000MHz Type=RS41-NG rdzTTGOsonde
KB3ZOXU14201352022-12-05 23:33:2338.998-77.22571121077890Clb=5.1m/s t=-33.9C h=32.3% 403.000MHz Type=RS41-NG rdzTTGOsonde
KB3ZOXU14201352022-12-05 23:32:5439.0001-77.23281091097803Clb=3.9m/s t=-33.2C h=24.6% 403.000MHz Type=RS41-NG rdzTTGOsonde
KB3ZOXU14201352022-12-05 23:32:1939.0024-77.24061141067700Clb=5.1m/s t=-32.4C h=24.6% 403.000MHz Type=RS41-NG rdzTTGOsonde
KB3ZOXU14201352022-12-05 23:31:5439.0044-77.2468115987613Clb=5.0m/s t=-31.7C h=26.4% 403.000MHz Type=RS41-NG rdzTTGOsonde
KB3ZOXU14201352022-12-05 23:31:3439.0062-77.2524115987533Clb=3.6m/s t=-31.1C h=26.0% 403.000MHz Type=RS41-NG rdzTTGOsonde
KB3ZOXU14201352022-12-05 23:31:1339.008-77.2583109947451Clb=4.3m/s t=-30.3C h=22.0% 403.000MHz Type=RS41-NG rdzTTGOsonde
KB3ZOXU14201352022-12-05 23:30:4939.0099-77.2646109897354Clb=3.6m/s t=-29.5C h=21.8% 403.000MHz Type=RS41-NG rdzTTGOsonde
KB3ZOXU14201352022-12-05 23:30:2739.0116-77.2703111857268Clb=4.3m/s t=-28.8C h=24.2% 403.000MHz Type=RS41-NG rdzTTGOsonde
KB3ZOXU14201352022-12-05 23:30:0439.0135-77.2762111877178Clb=4.4m/s t=-27.9C h=17.2% 403.000MHz Type=RS41-NG rdzTTGOsonde
KB3ZOXU14201352022-12-05 23:29:4239.0153-77.2817113817091Clb=4.0m/s t=-27.2C h=17.6% 403.000MHz Type=RS41-NG rdzTTGOsonde
KB3ZOXU14201352022-12-05 23:29:2239.0169-77.2867111837014Clb=4.5m/s t=-26.5C h=15.5% 403.000MHz Type=RS41-NG rdzTTGOsonde
KB3ZOXU14201352022-12-05 23:29:1239.0185-77.2918113836930Clb=4.9m/s t=-26.1C h=22.8% 403.000MHz Type=RS41-NG rdzTTGOsonde
KB3ZOXU14201352022-12-05 23:28:4939.0202-77.2971114746845Clb=4.8m/s t=-25.5C h=20.3% 403.000MHz Type=RS41-NG rdzTTGOsonde
KB3ZOXU14201352022-12-05 23:28:2439.0216-77.3016108706764Clb=4.2m/s t=-24.8C 403.000MHz Type=RS41 rdzTTGOsonde
KB3ZOXU14201352022-12-05 23:27:5939.0228-77.3062111806684Clb=4.9m/s t=-24.0C 403.000MHz Type=RS41 rdzTTGOsonde
KB3ZOXU14201352022-12-05 23:27:3739.0242-77.3111107766598Clb=4.7m/s 403.000MHz Type=RS41 rdzTTGOsonde
KB3ZOXU14201352022-12-05 23:27:1739.0256-77.316113766505Clb=5.4m/s 403.000MHz Type=RS41 rdzTTGOsonde
KB3ZOXU14201352022-12-05 23:26:5539.0272-77.3208115766418Clb=5.3m/s 403.000MHz Type=RS41 rdzTTGOsonde